Brazoria County Airport
KLBX : now visible

Airfield :











YOU CAN JOIN US ON...

 
LOGIN :

Register | Disclaimer

   EN    FR    IT 

 









Legend :    VFR   Marginal VFR   IFR   Intensive IFR   Very Intensive IFR
Visi :
Ceiling :
>= 8 km
>= 3000ft
5 to 8 km
1000 to 3000 ft
1500m to 5 km
500 to 1000 ft
800 to 1500m
200 to 500 ft
< 800m
< 200 ft
Symbols :   Thunderstorms  Fog  Heavy snow  Heavy precipitations  Wind > 20 kt






- Airport Elevation : 25 ft


KLBX - Brazoria County

CURRENT METAR :
  • 192153Z AUTO 13008KT 10SM CLR 23/13 A2998 RMK AO2 SLP151 T02330128

EXPIRED METARs :
  • 192053Z AUTO 14006KT 10SM CLR 24/12 A2998 RMK AO2 SLP151 T02390122 56010
  • 191953Z AUTO 17006KT 10SM CLR 24/12 A2998 RMK AO2 SLP152 T02440122

TAF KLBX
Valid from the 19 at 13:00 until the 20 at 12:00 UTC


191311Z 1913/2012 00000KT 6SM BR FEW002
FM191400 VRB04KT P6SM SKC
FM192000 17008KT P6SM SKC
FM200600 17005KT P6SM SCT026



MET'MAP, your aeronautical weather chart ! - Copyright ORBIFLY December 2007 - Disclaimer

ORBIFLY MET'MAP TEAM :

Programming & Development : Alexandra Zaïnal
Concept & Development : Baudouin d'Aumeries
Co-Development & Prog : Marc-Olivier Méhu
Technical & hardware support : Manuel Goepfert

Contact : metmap@orbifly.com




SOURCES & CREDITS :

   NOAA       Earth
Advisory